sensor_id;sensor_type;location;lat;lon;timestamp;P1;durP1;ratioP1;P2;durP2;ratioP2
49592;SDS011;35499;51.482;4.264;2024-03-07T00:10:03;32.60;;;13.82;;
49592;SDS011;35499;51.482;4.264;2024-03-07T00:12:32;37.72;;;14.80;;
49592;SDS011;35499;51.482;4.264;2024-03-07T00:15:04;37.15;;;16.48;;
49592;SDS011;35499;51.482;4.264;2024-03-07T00:17:33;41.47;;;15.57;;
49592;SDS011;35499;51.482;4.264;2024-03-07T00:19:59;43.63;;;16.08;;
49592;SDS011;35499;51.482;4.264;2024-03-07T00:22:25;42.15;;;16.58;;
49592;SDS011;35499;51.482;4.264;2024-03-07T00:24:52;45.85;;;16.38;;
49592;SDS011;35499;51.482;4.264;2024-03-07T00:27:18;36.92;;;16.30;;
49592;SDS011;35499;51.482;4.264;2024-03-07T00:29:44;41.03;;;17.70;;
49592;SDS011;35499;51.482;4.264;2024-03-07T00:32:17;40.58;;;19.30;;
49592;SDS011;35499;51.482;4.264;2024-03-07T00:34:43;41.00;;;16.60;;
49592;SDS011;35499;51.482;4.264;2024-03-07T00:37:09;50.38;;;18.67;;
49592;SDS011;35499;51.482;4.264;2024-03-07T00:39:34;36.70;;;15.80;;
49592;SDS011;35499;51.482;4.264;2024-03-07T00:42:00;41.95;;;16.50;;
49592;SDS011;35499;51.482;4.264;2024-03-07T00:44:25;42.17;;;15.27;;
49592;SDS011;35499;51.482;4.264;2024-03-07T00:46:51;49.58;;;18.83;;
49592;SDS011;35499;51.482;4.264;2024-03-07T00:49:17;37.03;;;15.50;;
49592;SDS011;35499;51.482;4.264;2024-03-07T00:51:42;43.10;;;16.63;;
49592;SDS011;35499;51.482;4.264;2024-03-07T00:54:08;45.20;;;17.40;;
49592;SDS011;35499;51.482;4.264;2024-03-07T00:56:34;48.28;;;20.55;;
49592;SDS011;35499;51.482;4.264;2024-03-07T00:59:01;44.35;;;16.67;;
49592;SDS011;35499;51.482;4.264;2024-03-07T01:01:26;41.83;;;17.67;;
49592;SDS011;35499;51.482;4.264;2024-03-07T01:03:51;47.50;;;18.33;;
49592;SDS011;35499;51.482;4.264;2024-03-07T01:06:17;52.10;;;19.80;;
49592;SDS011;35499;51.482;4.264;2024-03-07T01:08:42;43.92;;;16.92;;
49592;SDS011;35499;51.482;4.264;2024-03-07T01:11:07;40.08;;;15.05;;
49592;SDS011;35499;51.482;4.264;2024-03-07T01:13:37;46.80;;;17.02;;
49592;SDS011;35499;51.482;4.264;2024-03-07T01:16:07;48.55;;;16.42;;
49592;SDS011;35499;51.482;4.264;2024-03-07T01:18:32;51.90;;;19.55;;
49592;SDS011;35499;51.482;4.264;2024-03-07T01:21:01;46.08;;;18.33;;
49592;SDS011;35499;51.482;4.264;2024-03-07T01:23:27;43.33;;;18.35;;
49592;SDS011;35499;51.482;4.264;2024-03-07T01:25:54;38.28;;;17.00;;
49592;SDS011;35499;51.482;4.264;2024-03-07T01:28:21;51.22;;;20.52;;
49592;SDS011;35499;51.482;4.264;2024-03-07T01:30:47;38.78;;;16.35;;
49592;SDS011;35499;51.482;4.264;2024-03-07T01:33:13;52.65;;;19.83;;
49592;SDS011;35499;51.482;4.264;2024-03-07T01:35:38;42.43;;;16.53;;
49592;SDS011;35499;51.482;4.264;2024-03-07T01:38:04;43.53;;;17.70;;
49592;SDS011;35499;51.482;4.264;2024-03-07T01:40:29;47.65;;;18.83;;
49592;SDS011;35499;51.482;4.264;2024-03-07T01:42:55;46.73;;;17.20;;
49592;SDS011;35499;51.482;4.264;2024-03-07T01:45:20;51.13;;;20.33;;
49592;SDS011;35499;51.482;4.264;2024-03-07T01:47:46;50.30;;;20.00;;
49592;SDS011;35499;51.482;4.264;2024-03-07T01:50:11;49.83;;;20.05;;
49592;SDS011;35499;51.482;4.264;2024-03-07T01:52:38;50.88;;;20.48;;
49592;SDS011;35499;51.482;4.264;2024-03-07T01:55:05;46.35;;;16.77;;
49592;SDS011;35499;51.482;4.264;2024-03-07T01:57:31;57.40;;;20.17;;
49592;SDS011;35499;51.482;4.264;2024-03-07T01:59:56;50.92;;;21.50;;
49592;SDS011;35499;51.482;4.264;2024-03-07T02:02:22;45.80;;;18.73;;
49592;SDS011;35499;51.482;4.264;2024-03-07T02:04:47;58.13;;;20.23;;
49592;SDS011;35499;51.482;4.264;2024-03-07T02:07:12;50.10;;;19.37;;
49592;SDS011;35499;51.482;4.264;2024-03-07T02:09:38;61.78;;;24.98;;
49592;SDS011;35499;51.482;4.264;2024-03-07T02:12:03;48.95;;;17.98;;
49592;SDS011;35499;51.482;4.264;2024-03-07T02:14:29;55.85;;;21.20;;
49592;SDS011;35499;51.482;4.264;2024-03-07T02:16:54;46.15;;;17.70;;
49592;SDS011;35499;51.482;4.264;2024-03-07T02:19:21;55.17;;;19.65;;
49592;SDS011;35499;51.482;4.264;2024-03-07T02:21:47;52.35;;;20.45;;
49592;SDS011;35499;51.482;4.264;2024-03-07T02:24:12;52.92;;;20.75;;
49592;SDS011;35499;51.482;4.264;2024-03-07T02:26:39;50.75;;;17.65;;
49592;SDS011;35499;51.482;4.264;2024-03-07T02:29:04;59.15;;;23.17;;
49592;SDS011;35499;51.482;4.264;2024-03-07T02:31:30;55.78;;;19.98;;
49592;SDS011;35499;51.482;4.264;2024-03-07T02:34:05;46.40;;;20.17;;
49592;SDS011;35499;51.482;4.264;2024-03-07T02:36:32;53.50;;;20.52;;
49592;SDS011;35499;51.482;4.264;2024-03-07T02:38:58;47.97;;;18.52;;
49592;SDS011;35499;51.482;4.264;2024-03-07T02:41:24;49.35;;;20.42;;
49592;SDS011;35499;51.482;4.264;2024-03-07T02:43:50;45.28;;;19.77;;
49592;SDS011;35499;51.482;4.264;2024-03-07T02:46:16;45.45;;;16.13;;
49592;SDS011;35499;51.482;4.264;2024-03-07T02:48:41;54.03;;;19.52;;
49592;SDS011;35499;51.482;4.264;2024-03-07T02:51:07;46.03;;;20.03;;
49592;SDS011;35499;51.482;4.264;2024-03-07T02:53:32;51.17;;;22.02;;
49592;SDS011;35499;51.482;4.264;2024-03-07T02:55:58;57.33;;;20.20;;
49592;SDS011;35499;51.482;4.264;2024-03-07T02:58:23;48.70;;;19.08;;
49592;SDS011;35499;51.482;4.264;2024-03-07T03:00:56;53.88;;;19.95;;
49592;SDS011;35499;51.482;4.264;2024-03-07T03:03:22;39.13;;;15.52;;
49592;SDS011;35499;51.482;4.264;2024-03-07T03:05:48;54.03;;;20.13;;
49592;SDS011;35499;51.482;4.264;2024-03-07T03:08:13;54.00;;;20.73;;
49592;SDS011;35499;51.482;4.264;2024-03-07T03:10:39;51.33;;;19.55;;
49592;SDS011;35499;51.482;4.264;2024-03-07T03:13:04;44.88;;;18.00;;
49592;SDS011;35499;51.482;4.264;2024-03-07T03:15:29;52.42;;;19.98;;
49592;SDS011;35499;51.482;4.264;2024-03-07T03:17:56;52.05;;;20.65;;
49592;SDS011;35499;51.482;4.264;2024-03-07T03:20:24;39.83;;;17.25;;
49592;SDS011;35499;51.482;4.264;2024-03-07T03:22:50;49.72;;;18.80;;
49592;SDS011;35499;51.482;4.264;2024-03-07T03:25:22;62.00;;;22.63;;
49592;SDS011;35499;51.482;4.264;2024-03-07T03:27:48;58.13;;;22.98;;
49592;SDS011;35499;51.482;4.264;2024-03-07T03:30:14;50.17;;;17.45;;
49592;SDS011;35499;51.482;4.264;2024-03-07T03:32:41;56.63;;;22.75;;
49592;SDS011;35499;51.482;4.264;2024-03-07T03:35:07;65.83;;;24.23;;
49592;SDS011;35499;51.482;4.264;2024-03-07T03:37:38;50.92;;;20.15;;
49592;SDS011;35499;51.482;4.264;2024-03-07T03:40:04;58.42;;;22.52;;
49592;SDS011;35499;51.482;4.264;2024-03-07T03:42:30;59.53;;;23.70;;
49592;SDS011;35499;51.482;4.264;2024-03-07T03:44:55;47.87;;;18.30;;
49592;SDS011;35499;51.482;4.264;2024-03-07T03:47:21;50.20;;;19.52;;
49592;SDS011;35499;51.482;4.264;2024-03-07T03:49:46;47.13;;;18.07;;
49592;SDS011;35499;51.482;4.264;2024-03-07T03:52:12;52.83;;;21.60;;
49592;SDS011;35499;51.482;4.264;2024-03-07T03:54:37;44.63;;;18.97;;
49592;SDS011;35499;51.482;4.264;2024-03-07T03:57:03;51.03;;;23.07;;
49592;SDS011;35499;51.482;4.264;2024-03-07T03:59:28;47.65;;;19.20;;
49592;SDS011;35499;51.482;4.264;2024-03-07T04:01:53;51.73;;;22.33;;
49592;SDS011;35499;51.482;4.264;2024-03-07T04:04:19;36.73;;;14.57;;
49592;SDS011;35499;51.482;4.264;2024-03-07T04:06:44;43.97;;;19.25;;
49592;SDS011;35499;51.482;4.264;2024-03-07T04:09:09;47.63;;;22.90;;
49592;SDS011;35499;51.482;4.264;2024-03-07T04:11:35;50.72;;;20.83;;
49592;SDS011;35499;51.482;4.264;2024-03-07T04:14:00;34.53;;;15.57;;
49592;SDS011;35499;51.482;4.264;2024-03-07T04:16:26;50.33;;;19.40;;
49592;SDS011;35499;51.482;4.264;2024-03-07T04:18:51;42.47;;;15.63;;
49592;SDS011;35499;51.482;4.264;2024-03-07T04:21:17;40.13;;;15.70;;
49592;SDS011;35499;51.482;4.264;2024-03-07T04:23:42;46.23;;;18.43;;
49592;SDS011;35499;51.482;4.264;2024-03-07T04:26:08;47.80;;;18.08;;
49592;SDS011;35499;51.482;4.264;2024-03-07T04:28:33;45.40;;;21.38;;
49592;SDS011;35499;51.482;4.264;2024-03-07T04:30:59;54.60;;;23.08;;
49592;SDS011;35499;51.482;4.264;2024-03-07T04:33:24;54.47;;;22.43;;
49592;SDS011;35499;51.482;4.264;2024-03-07T04:35:49;42.77;;;19.03;;
49592;SDS011;35499;51.482;4.264;2024-03-07T04:38:17;52.80;;;22.30;;
49592;SDS011;35499;51.482;4.264;2024-03-07T04:40:42;54.58;;;23.08;;
49592;SDS011;35499;51.482;4.264;2024-03-07T04:43:08;44.30;;;18.02;;
49592;SDS011;35499;51.482;4.264;2024-03-07T04:45:33;52.93;;;21.23;;
49592;SDS011;35499;51.482;4.264;2024-03-07T04:47:59;50.63;;;19.48;;
49592;SDS011;35499;51.482;4.264;2024-03-07T04:50:25;49.07;;;18.13;;
49592;SDS011;35499;51.482;4.264;2024-03-07T04:52:51;47.60;;;18.23;;
49592;SDS011;35499;51.482;4.264;2024-03-07T04:55:16;52.20;;;18.67;;
49592;SDS011;35499;51.482;4.264;2024-03-07T04:57:43;56.28;;;21.95;;
49592;SDS011;35499;51.482;4.264;2024-03-07T05:00:09;59.33;;;22.10;;
49592;SDS011;35499;51.482;4.264;2024-03-07T05:02:43;62.45;;;24.08;;
49592;SDS011;35499;51.482;4.264;2024-03-07T05:05:10;52.15;;;21.67;;
49592;SDS011;35499;51.482;4.264;2024-03-07T05:07:35;58.90;;;22.88;;
49592;SDS011;35499;51.482;4.264;2024-03-07T05:10:01;36.60;;;15.87;;
49592;SDS011;35499;51.482;4.264;2024-03-07T05:12:27;49.67;;;20.63;;
49592;SDS011;35499;51.482;4.264;2024-03-07T05:14:53;46.22;;;17.45;;
49592;SDS011;35499;51.482;4.264;2024-03-07T05:17:18;36.03;;;14.77;;
49592;SDS011;35499;51.482;4.264;2024-03-07T05:19:44;46.20;;;20.80;;
49592;SDS011;35499;51.482;4.264;2024-03-07T05:22:10;56.53;;;21.67;;
49592;SDS011;35499;51.482;4.264;2024-03-07T05:24:40;54.45;;;22.27;;
49592;SDS011;35499;51.482;4.264;2024-03-07T05:27:07;61.67;;;23.65;;
49592;SDS011;35499;51.482;4.264;2024-03-07T05:29:33;58.08;;;20.85;;
49592;SDS011;35499;51.482;4.264;2024-03-07T05:32:18;50.77;;;22.20;;
49592;SDS011;35499;51.482;4.264;2024-03-07T05:34:50;37.08;;;17.10;;
49592;SDS011;35499;51.482;4.264;2024-03-07T05:37:16;48.40;;;19.63;;
49592;SDS011;35499;51.482;4.264;2024-03-07T05:39:42;58.85;;;22.90;;
49592;SDS011;35499;51.482;4.264;2024-03-07T05:42:07;55.67;;;21.73;;
49592;SDS011;35499;51.482;4.264;2024-03-07T05:44:33;58.03;;;23.80;;
49592;SDS011;35499;51.482;4.264;2024-03-07T05:46:58;59.05;;;20.45;;
49592;SDS011;35499;51.482;4.264;2024-03-07T05:49:23;41.20;;;17.38;;
49592;SDS011;35499;51.482;4.264;2024-03-07T05:51:49;55.50;;;20.77;;
49592;SDS011;35499;51.482;4.264;2024-03-07T05:54:14;51.80;;;17.90;;
49592;SDS011;35499;51.482;4.264;2024-03-07T05:56:40;58.05;;;24.52;;
49592;SDS011;35499;51.482;4.264;2024-03-07T05:59:06;57.08;;;22.75;;
49592;SDS011;35499;51.482;4.264;2024-03-07T06:01:34;50.53;;;20.92;;
49592;SDS011;35499;51.482;4.264;2024-03-07T06:04:04;53.88;;;20.40;;
49592;SDS011;35499;51.482;4.264;2024-03-07T06:06:36;40.85;;;18.60;;
49592;SDS011;35499;51.482;4.264;2024-03-07T06:09:07;53.78;;;20.48;;
49592;SDS011;35499;51.482;4.264;2024-03-07T06:11:35;46.40;;;18.85;;
49592;SDS011;35499;51.482;4.264;2024-03-07T06:14:02;59.20;;;23.08;;
49592;SDS011;35499;51.482;4.264;2024-03-07T06:16:32;49.20;;;21.83;;
49592;SDS011;35499;51.482;4.264;2024-03-07T06:19:02;56.00;;;22.58;;
49592;SDS011;35499;51.482;4.264;2024-03-07T06:21:28;55.33;;;21.25;;
49592;SDS011;35499;51.482;4.264;2024-03-07T06:23:57;61.10;;;22.45;;
49592;SDS011;35499;51.482;4.264;2024-03-07T06:26:30;36.50;;;16.23;;
49592;SDS011;35499;51.482;4.264;2024-03-07T06:29:10;37.88;;;17.77;;
49592;SDS011;35499;51.482;4.264;2024-03-07T06:31:39;49.58;;;20.95;;
49592;SDS011;35499;51.482;4.264;2024-03-07T06:36:32;50.40;;;22.77;;
49592;SDS011;35499;51.482;4.264;2024-03-07T06:38:57;56.75;;;23.40;;
49592;SDS011;35499;51.482;4.264;2024-03-07T06:41:23;53.13;;;23.10;;
49592;SDS011;35499;51.482;4.264;2024-03-07T06:43:50;61.03;;;22.70;;
49592;SDS011;35499;51.482;4.264;2024-03-07T06:46:15;60.05;;;23.23;;
49592;SDS011;35499;51.482;4.264;2024-03-07T06:48:41;57.42;;;24.98;;
49592;SDS011;35499;51.482;4.264;2024-03-07T06:51:07;59.85;;;24.13;;
49592;SDS011;35499;51.482;4.264;2024-03-07T06:53:33;43.55;;;17.77;;
49592;SDS011;35499;51.482;4.264;2024-03-07T06:55:58;54.57;;;23.17;;
49592;SDS011;35499;51.482;4.264;2024-03-07T06:58:24;57.33;;;21.13;;
49592;SDS011;35499;51.482;4.264;2024-03-07T07:00:49;43.13;;;18.50;;
49592;SDS011;35499;51.482;4.264;2024-03-07T07:03:18;63.30;;;23.33;;
49592;SDS011;35499;51.482;4.264;2024-03-07T07:05:45;57.20;;;23.30;;
49592;SDS011;35499;51.482;4.264;2024-03-07T07:08:10;53.95;;;19.85;;
49592;SDS011;35499;51.482;4.264;2024-03-07T07:10:37;49.58;;;22.58;;
49592;SDS011;35499;51.482;4.264;2024-03-07T07:13:05;61.33;;;24.70;;
49592;SDS011;35499;51.482;4.264;2024-03-07T07:15:38;52.50;;;22.92;;
49592;SDS011;35499;51.482;4.264;2024-03-07T07:18:04;51.65;;;22.92;;
49592;SDS011;35499;51.482;4.264;2024-03-07T07:20:29;42.10;;;18.08;;
49592;SDS011;35499;51.482;4.264;2024-03-07T07:22:55;52.92;;;20.42;;
49592;SDS011;35499;51.482;4.264;2024-03-07T07:25:22;51.67;;;22.13;;
49592;SDS011;35499;51.482;4.264;2024-03-07T07:27:48;56.22;;;24.05;;
49592;SDS011;35499;51.482;4.264;2024-03-07T07:30:20;57.78;;;22.95;;
49592;SDS011;35499;51.482;4.264;2024-03-07T07:32:48;56.95;;;22.08;;
49592;SDS011;35499;51.482;4.264;2024-03-07T07:35:14;50.67;;;21.45;;
49592;SDS011;35499;51.482;4.264;2024-03-07T07:37:40;51.90;;;19.33;;
49592;SDS011;35499;51.482;4.264;2024-03-07T07:40:07;47.90;;;18.80;;
49592;SDS011;35499;51.482;4.264;2024-03-07T07:42:39;51.53;;;19.45;;
49592;SDS011;35499;51.482;4.264;2024-03-07T07:45:07;40.45;;;16.65;;
49592;SDS011;35499;51.482;4.264;2024-03-07T07:47:36;40.97;;;18.85;;
49592;SDS011;35499;51.482;4.264;2024-03-07T07:50:08;48.25;;;20.58;;
49592;SDS011;35499;51.482;4.264;2024-03-07T07:52:49;46.90;;;20.05;;
49592;SDS011;35499;51.482;4.264;2024-03-07T07:55:34;42.28;;;18.08;;
49592;SDS011;35499;51.482;4.264;2024-03-07T07:58:00;41.10;;;17.75;;
49592;SDS011;35499;51.482;4.264;2024-03-07T08:00:29;42.35;;;19.23;;
49592;SDS011;35499;51.482;4.264;2024-03-07T08:03:02;31.25;;;15.30;;
49592;SDS011;35499;51.482;4.264;2024-03-07T08:05:32;40.10;;;18.48;;
49592;SDS011;35499;51.482;4.264;2024-03-07T08:07:59;41.88;;;17.98;;
49592;SDS011;35499;51.482;4.264;2024-03-07T08:10:27;41.42;;;17.75;;
49592;SDS011;35499;51.482;4.264;2024-03-07T08:12:54;38.63;;;17.88;;
49592;SDS011;35499;51.482;4.264;2024-03-07T08:15:20;36.50;;;17.40;;
49592;SDS011;35499;51.482;4.264;2024-03-07T08:17:46;38.35;;;17.20;;
49592;SDS011;35499;51.482;4.264;2024-03-07T08:22:39;39.22;;;17.83;;
49592;SDS011;35499;51.482;4.264;2024-03-07T08:25:11;38.63;;;18.33;;
49592;SDS011;35499;51.482;4.264;2024-03-07T08:27:38;38.58;;;17.27;;
49592;SDS011;35499;51.482;4.264;2024-03-07T08:30:04;33.72;;;16.75;;
49592;SDS011;35499;51.482;4.264;2024-03-07T08:32:37;36.40;;;17.63;;
49592;SDS011;35499;51.482;4.264;2024-03-07T08:35:07;35.65;;;15.82;;
49592;SDS011;35499;51.482;4.264;2024-03-07T08:37:36;38.80;;;17.98;;
49592;SDS011;35499;51.482;4.264;2024-03-07T08:40:03;37.42;;;17.67;;
49592;SDS011;35499;51.482;4.264;2024-03-07T08:42:30;30.77;;;16.50;;
49592;SDS011;35499;51.482;4.264;2024-03-07T08:44:57;36.72;;;17.27;;
49592;SDS011;35499;51.482;4.264;2024-03-07T08:47:23;35.42;;;18.08;;
49592;SDS011;35499;51.482;4.264;2024-03-07T08:49:48;37.97;;;17.30;;
49592;SDS011;35499;51.482;4.264;2024-03-07T08:52:14;34.05;;;17.20;;
49592;SDS011;35499;51.482;4.264;2024-03-07T08:54:39;34.70;;;16.93;;
49592;SDS011;35499;51.482;4.264;2024-03-07T08:57:04;33.87;;;16.60;;
49592;SDS011;35499;51.482;4.264;2024-03-07T08:59:31;30.00;;;17.02;;
49592;SDS011;35499;51.482;4.264;2024-03-07T09:01:58;34.10;;;16.48;;
49592;SDS011;35499;51.482;4.264;2024-03-07T09:04:26;31.98;;;16.58;;
49592;SDS011;35499;51.482;4.264;2024-03-07T09:06:53;34.20;;;16.80;;
49592;SDS011;35499;51.482;4.264;2024-03-07T09:09:18;31.25;;;15.80;;
49592;SDS011;35499;51.482;4.264;2024-03-07T09:11:44;31.00;;;16.35;;
49592;SDS011;35499;51.482;4.264;2024-03-07T09:14:09;33.47;;;17.03;;
49592;SDS011;35499;51.482;4.264;2024-03-07T09:16:35;28.20;;;14.23;;
49592;SDS011;35499;51.482;4.264;2024-03-07T09:19:01;30.13;;;15.23;;
49592;SDS011;35499;51.482;4.264;2024-03-07T09:21:26;26.50;;;14.68;;
49592;SDS011;35499;51.482;4.264;2024-03-07T09:23:52;27.17;;;14.25;;
49592;SDS011;35499;51.482;4.264;2024-03-07T09:26:17;31.10;;;14.67;;
49592;SDS011;35499;51.482;4.264;2024-03-07T09:28:42;26.27;;;13.52;;
49592;SDS011;35499;51.482;4.264;2024-03-07T09:31:08;29.23;;;14.50;;
49592;SDS011;35499;51.482;4.264;2024-03-07T09:33:33;21.03;;;11.47;;
49592;SDS011;35499;51.482;4.264;2024-03-07T09:35:59;26.27;;;14.00;;
49592;SDS011;35499;51.482;4.264;2024-03-07T09:38:24;23.40;;;12.50;;
49592;SDS011;35499;51.482;4.264;2024-03-07T09:40:50;25.48;;;13.23;;
49592;SDS011;35499;51.482;4.264;2024-03-07T09:43:15;25.38;;;13.00;;
49592;SDS011;35499;51.482;4.264;2024-03-07T09:45:44;21.40;;;11.77;;
49592;SDS011;35499;51.482;4.264;2024-03-07T09:48:12;19.95;;;11.02;;
49592;SDS011;35499;51.482;4.264;2024-03-07T09:50:38;19.08;;;11.57;;
49592;SDS011;35499;51.482;4.264;2024-03-07T09:53:05;19.65;;;10.70;;
49592;SDS011;35499;51.482;4.264;2024-03-07T09:55:31;21.48;;;12.23;;
49592;SDS011;35499;51.482;4.264;2024-03-07T09:57:56;18.00;;;10.40;;
49592;SDS011;35499;51.482;4.264;2024-03-07T10:07:13;20.27;;;11.80;;
49592;SDS011;35499;51.482;4.264;2024-03-07T10:09:43;25.65;;;12.50;;
49592;SDS011;35499;51.482;4.264;2024-03-07T10:12:09;21.83;;;12.38;;
49592;SDS011;35499;51.482;4.264;2024-03-07T10:14:37;21.23;;;11.52;;
49592;SDS011;35499;51.482;4.264;2024-03-07T10:17:25;21.00;;;12.20;;
49592;SDS011;35499;51.482;4.264;2024-03-07T10:19:51;20.70;;;12.48;;
49592;SDS011;35499;51.482;4.264;2024-03-07T10:22:18;21.08;;;10.35;;
49592;SDS011;35499;51.482;4.264;2024-03-07T10:24:51;18.63;;;12.65;;
49592;SDS011;35499;51.482;4.264;2024-03-07T10:27:20;17.27;;;10.50;;
49592;SDS011;35499;51.482;4.264;2024-03-07T10:29:49;17.08;;;10.25;;
49592;SDS011;35499;51.482;4.264;2024-03-07T10:32:20;17.63;;;10.50;;
49592;SDS011;35499;51.482;4.264;2024-03-07T10:34:50;16.90;;;9.45;;
49592;SDS011;35499;51.482;4.264;2024-03-07T10:37:16;18.10;;;10.25;;
49592;SDS011;35499;51.482;4.264;2024-03-07T10:39:45;15.35;;;9.52;;
49592;SDS011;35499;51.482;4.264;2024-03-07T10:42:13;18.50;;;10.27;;
49592;SDS011;35499;51.482;4.264;2024-03-07T10:44:40;19.10;;;11.02;;
49592;SDS011;35499;51.482;4.264;2024-03-07T10:47:11;16.63;;;10.23;;
49592;SDS011;35499;51.482;4.264;2024-03-07T10:49:50;20.13;;;12.43;;
49592;SDS011;35499;51.482;4.264;2024-03-07T10:52:43;18.67;;;11.35;;
49592;SDS011;35499;51.482;4.264;2024-03-07T10:55:15;18.17;;;11.55;;
49592;SDS011;35499;51.482;4.264;2024-03-07T10:57:51;17.42;;;11.25;;
49592;SDS011;35499;51.482;4.264;2024-03-07T11:00:25;16.20;;;10.43;;
49592;SDS011;35499;51.482;4.264;2024-03-07T11:03:01;18.73;;;11.13;;
49592;SDS011;35499;51.482;4.264;2024-03-07T11:05:32;16.52;;;9.98;;
49592;SDS011;35499;51.482;4.264;2024-03-07T11:08:02;19.08;;;11.88;;
49592;SDS011;35499;51.482;4.264;2024-03-07T11:10:37;17.52;;;10.82;;
49592;SDS011;35499;51.482;4.264;2024-03-07T11:13:05;17.92;;;11.77;;
49592;SDS011;35499;51.482;4.264;2024-03-07T11:15:35;17.25;;;11.35;;
49592;SDS011;35499;51.482;4.264;2024-03-07T11:18:01;19.20;;;11.88;;
49592;SDS011;35499;51.482;4.264;2024-03-07T11:20:31;17.23;;;11.00;;
49592;SDS011;35499;51.482;4.264;2024-03-07T11:23:00;17.13;;;11.55;;
49592;SDS011;35499;51.482;4.264;2024-03-07T11:25:26;14.90;;;10.87;;
49592;SDS011;35499;51.482;4.264;2024-03-07T11:27:56;18.20;;;11.05;;
49592;SDS011;35499;51.482;4.264;2024-03-07T11:30:26;14.93;;;10.05;;
49592;SDS011;35499;51.482;4.264;2024-03-07T11:32:52;18.70;;;11.98;;
49592;SDS011;35499;51.482;4.264;2024-03-07T11:35:40;16.48;;;9.98;;
49592;SDS011;35499;51.482;4.264;2024-03-07T11:38:08;16.30;;;10.82;;
49592;SDS011;35499;51.482;4.264;2024-03-07T11:43:04;16.92;;;9.70;;
49592;SDS011;35499;51.482;4.264;2024-03-07T11:45:32;17.10;;;10.70;;
49592;SDS011;35499;51.482;4.264;2024-03-07T11:48:10;16.35;;;9.18;;
49592;SDS011;35499;51.482;4.264;2024-03-07T11:50:35;19.70;;;12.50;;
49592;SDS011;35499;51.482;4.264;2024-03-07T11:53:05;17.27;;;11.10;;
49592;SDS011;35499;51.482;4.264;2024-03-07T11:55:35;22.10;;;13.05;;
49592;SDS011;35499;51.482;4.264;2024-03-07T11:58:13;19.80;;;11.55;;
49592;SDS011;35499;51.482;4.264;2024-03-07T12:00:41;20.45;;;11.88;;
49592;SDS011;35499;51.482;4.264;2024-03-07T12:03:10;16.77;;;10.68;;
49592;SDS011;35499;51.482;4.264;2024-03-07T12:05:50;18.55;;;10.23;;
49592;SDS011;35499;51.482;4.264;2024-03-07T12:08:19;13.30;;;9.10;;
49592;SDS011;35499;51.482;4.264;2024-03-07T12:10:47;18.92;;;12.25;;
49592;SDS011;35499;51.482;4.264;2024-03-07T12:13:17;15.65;;;10.30;;
49592;SDS011;35499;51.482;4.264;2024-03-07T12:15:44;12.63;;;8.00;;
49592;SDS011;35499;51.482;4.264;2024-03-07T12:18:10;17.48;;;10.30;;
49592;SDS011;35499;51.482;4.264;2024-03-07T12:20:39;16.50;;;10.23;;
49592;SDS011;35499;51.482;4.264;2024-03-07T12:23:07;18.55;;;10.82;;
49592;SDS011;35499;51.482;4.264;2024-03-07T12:25:36;14.82;;;9.38;;
49592;SDS011;35499;51.482;4.264;2024-03-07T12:28:03;16.13;;;10.93;;
49592;SDS011;35499;51.482;4.264;2024-03-07T12:30:51;18.00;;;10.85;;
49592;SDS011;35499;51.482;4.264;2024-03-07T12:33:19;22.45;;;11.65;;
49592;SDS011;35499;51.482;4.264;2024-03-07T12:35:51;18.02;;;11.07;;
49592;SDS011;35499;51.482;4.264;2024-03-07T12:38:21;17.70;;;10.50;;
49592;SDS011;35499;51.482;4.264;2024-03-07T12:41:01;19.15;;;11.05;;
49592;SDS011;35499;51.482;4.264;2024-03-07T12:43:38;18.10;;;10.05;;
49592;SDS011;35499;51.482;4.264;2024-03-07T12:46:07;12.82;;;8.02;;
49592;SDS011;35499;51.482;4.264;2024-03-07T12:48:36;16.45;;;9.40;;
49592;SDS011;35499;51.482;4.264;2024-03-07T12:51:03;14.60;;;10.32;;
49592;SDS011;35499;51.482;4.264;2024-03-07T12:53:29;16.98;;;10.32;;
49592;SDS011;35499;51.482;4.264;2024-03-07T12:55:56;15.43;;;8.98;;
49592;SDS011;35499;51.482;4.264;2024-03-07T12:58:22;18.20;;;11.13;;
49592;SDS011;35499;51.482;4.264;2024-03-07T13:00:53;18.23;;;10.32;;
49592;SDS011;35499;51.482;4.264;2024-03-07T13:03:26;19.08;;;10.98;;
49592;SDS011;35499;51.482;4.264;2024-03-07T13:05:57;17.88;;;9.90;;
49592;SDS011;35499;51.482;4.264;2024-03-07T13:08:26;19.40;;;12.05;;
49592;SDS011;35499;51.482;4.264;2024-03-07T13:10:54;18.55;;;10.10;;
49592;SDS011;35499;51.482;4.264;2024-03-07T13:13:20;21.80;;;12.27;;
49592;SDS011;35499;51.482;4.264;2024-03-07T13:15:46;19.88;;;10.82;;
49592;SDS011;35499;51.482;4.264;2024-03-07T13:18:12;20.73;;;13.48;;
49592;SDS011;35499;51.482;4.264;2024-03-07T13:20:38;18.13;;;11.00;;
49592;SDS011;35499;51.482;4.264;2024-03-07T13:23:04;19.75;;;12.55;;
49592;SDS011;35499;51.482;4.264;2024-03-07T13:25:31;17.58;;;9.93;;
49592;SDS011;35499;51.482;4.264;2024-03-07T13:30:28;18.55;;;10.38;;
49592;SDS011;35499;51.482;4.264;2024-03-07T13:32:54;18.23;;;11.48;;
49592;SDS011;35499;51.482;4.264;2024-03-07T13:35:24;21.00;;;12.80;;
49592;SDS011;35499;51.482;4.264;2024-03-07T13:37:51;21.20;;;12.45;;
49592;SDS011;35499;51.482;4.264;2024-03-07T13:40:20;21.05;;;12.07;;
49592;SDS011;35499;51.482;4.264;2024-03-07T13:42:49;21.15;;;12.38;;
49592;SDS011;35499;51.482;4.264;2024-03-07T13:45:17;19.58;;;11.00;;
49592;SDS011;35499;51.482;4.264;2024-03-07T13:47:43;22.50;;;11.88;;
49592;SDS011;35499;51.482;4.264;2024-03-07T13:50:09;20.00;;;10.57;;
49592;SDS011;35499;51.482;4.264;2024-03-07T13:52:37;18.95;;;10.82;;
49592;SDS011;35499;51.482;4.264;2024-03-07T13:55:08;21.20;;;11.63;;
49592;SDS011;35499;51.482;4.264;2024-03-07T13:57:48;23.85;;;11.98;;
49592;SDS011;35499;51.482;4.264;2024-03-07T14:00:30;20.40;;;11.90;;
49592;SDS011;35499;51.482;4.264;2024-03-07T14:03:29;21.02;;;11.32;;
49592;SDS011;35499;51.482;4.264;2024-03-07T14:32:10;23.35;;;10.80;;
49592;SDS011;35499;51.482;4.264;2024-03-07T14:37:25;18.90;;;8.93;;
49592;SDS011;35499;51.482;4.264;2024-03-07T14:39:53;21.40;;;11.32;;
49592;SDS011;35499;51.482;4.264;2024-03-07T14:42:34;21.38;;;10.50;;
49592;SDS011;35499;51.482;4.264;2024-03-07T14:45:01;21.45;;;10.50;;
49592;SDS011;35499;51.482;4.264;2024-03-07T14:47:32;18.42;;;10.48;;
49592;SDS011;35499;51.482;4.264;2024-03-07T14:49:58;22.50;;;10.90;;
49592;SDS011;35499;51.482;4.264;2024-03-07T14:52:24;19.95;;;10.93;;
49592;SDS011;35499;51.482;4.264;2024-03-07T14:54:52;18.05;;;9.50;;
49592;SDS011;35499;51.482;4.264;2024-03-07T14:57:17;19.48;;;9.85;;
49592;SDS011;35499;51.482;4.264;2024-03-07T14:59:43;18.73;;;9.88;;
49592;SDS011;35499;51.482;4.264;2024-03-07T15:02:10;21.88;;;9.10;;
49592;SDS011;35499;51.482;4.264;2024-03-07T15:04:36;15.88;;;8.15;;
49592;SDS011;35499;51.482;4.264;2024-03-07T15:07:03;13.05;;;6.53;;
49592;SDS011;35499;51.482;4.264;2024-03-07T15:09:29;15.90;;;8.32;;
49592;SDS011;35499;51.482;4.264;2024-03-07T15:11:55;19.77;;;8.77;;
49592;SDS011;35499;51.482;4.264;2024-03-07T15:14:20;13.90;;;6.60;;
49592;SDS011;35499;51.482;4.264;2024-03-07T15:16:46;16.17;;;8.32;;
49592;SDS011;35499;51.482;4.264;2024-03-07T15:19:11;14.55;;;7.15;;
49592;SDS011;35499;51.482;4.264;2024-03-07T15:21:37;18.75;;;9.52;;